createdAt,value
2023-11-26T00:00:27.113Z,1.27
2023-11-26T00:02:54.312Z,1.13
2023-11-26T00:05:21.506Z,0.95
2023-11-26T00:07:48.735Z,1.00
2023-11-26T00:10:16.006Z,1.45
2023-11-26T00:12:43.313Z,0.90
2023-11-26T00:15:13.455Z,1.00
2023-11-26T00:17:41.017Z,0.57
2023-11-26T00:20:09.128Z,0.57
2023-11-26T00:22:36.230Z,1.20
2023-11-26T00:25:03.219Z,1.10
2023-11-26T00:27:30.163Z,0.98
2023-11-26T00:29:57.087Z,1.10
2023-11-26T00:32:24.233Z,0.55
2023-11-26T00:34:51.261Z,0.93
2023-11-26T00:37:18.536Z,1.43
2023-11-26T00:39:45.496Z,1.35
2023-11-26T00:42:12.255Z,1.20
2023-11-26T00:44:39.133Z,1.42
2023-11-26T00:47:06.439Z,0.73
2023-11-26T00:49:33.433Z,0.97
2023-11-26T00:52:00.338Z,1.45
2023-11-26T00:54:27.191Z,0.98
2023-11-26T00:56:54.225Z,0.93
2023-11-26T00:59:21.249Z,0.70
2023-11-26T01:01:48.331Z,1.20
2023-11-26T01:04:15.514Z,0.88
2023-11-26T01:06:42.527Z,0.98
2023-11-26T01:09:09.892Z,0.82
2023-11-26T01:11:38.733Z,0.90
2023-11-26T01:14:07.703Z,0.90
2023-11-26T01:16:34.861Z,0.85
2023-11-26T01:19:01.872Z,0.57
2023-11-26T01:21:28.803Z,1.08
2023-11-26T01:23:55.758Z,1.25
2023-11-26T01:26:22.781Z,0.90
2023-11-26T01:28:49.907Z,0.70
2023-11-26T01:31:16.914Z,1.13
2023-11-26T01:33:43.888Z,1.02
2023-11-26T01:36:11.466Z,0.73
2023-11-26T01:38:38.728Z,1.00
2023-11-26T01:41:06.012Z,0.93
2023-11-26T01:43:33.149Z,0.80
2023-11-26T01:46:13.940Z,0.60
2023-11-26T01:48:41.728Z,1.00
2023-11-26T01:51:11.927Z,0.63
2023-11-26T01:53:43.570Z,0.50
2023-11-26T01:56:10.563Z,0.80
2023-11-26T01:58:37.891Z,0.70
2023-11-26T02:01:05.129Z,0.43
2023-11-26T02:03:32.255Z,0.57
2023-11-26T02:05:59.526Z,0.80
2023-11-26T02:08:28.258Z,1.00
2023-11-26T02:10:56.263Z,1.20
2023-11-26T02:13:23.195Z,1.10
2023-11-26T02:15:50.152Z,0.90
2023-11-26T02:18:17.188Z,1.02
2023-11-26T02:20:44.122Z,0.70
2023-11-26T02:23:11.077Z,0.77
2023-11-26T02:25:38.049Z,0.55
2023-11-26T02:28:08.798Z,0.87
2023-11-26T02:30:35.728Z,0.45
2023-11-26T02:33:02.803Z,1.00
2023-11-26T02:35:29.800Z,0.68
2023-11-26T02:37:57.297Z,1.15
2023-11-26T02:40:26.017Z,0.40
2023-11-26T02:42:53.144Z,0.90
2023-11-26T02:45:20.149Z,0.55
2023-11-26T02:47:47.482Z,0.70
2023-11-26T02:50:14.824Z,1.15
2023-11-26T02:52:41.829Z,0.77
2023-11-26T02:55:09.796Z,0.47
2023-11-26T02:57:36.755Z,0.70
2023-11-26T03:00:09.939Z,0.60
2023-11-26T03:02:37.013Z,0.55
2023-11-26T03:05:07.501Z,0.50
2023-11-26T03:07:35.966Z,0.75
2023-11-26T03:10:22.356Z,0.55
2023-11-26T03:13:07.929Z,0.60
2023-11-26T03:15:38.460Z,0.70
2023-11-26T03:18:06.716Z,0.93
2023-11-26T03:20:33.739Z,0.95
2023-11-26T03:23:00.751Z,0.60
2023-11-26T03:25:27.722Z,0.60
2023-11-26T03:27:55.672Z,0.85
2023-11-26T03:30:22.638Z,0.47
2023-11-26T03:32:49.539Z,0.60
2023-11-26T03:35:18.012Z,0.82
2023-11-26T03:37:45.001Z,0.63
2023-11-26T03:40:12.504Z,1.05
2023-11-26T03:42:40.475Z,0.30
2023-11-26T03:45:08.095Z,0.73
2023-11-26T03:47:36.050Z,0.70
2023-11-26T03:50:06.889Z,0.38
2023-11-26T03:52:34.623Z,0.93
2023-11-26T03:55:01.598Z,0.50
2023-11-26T03:57:28.564Z,0.55
2023-11-26T03:59:55.503Z,0.75
2023-11-26T04:02:22.582Z,0.75
2023-11-26T04:04:52.421Z,0.43
2023-11-26T04:07:20.098Z,0.70
2023-11-26T04:09:48.418Z,0.30
2023-11-26T04:12:15.475Z,0.60
2023-11-26T04:15:06.014Z,0.35
2023-11-26T04:17:34.033Z,0.52
2023-11-26T04:20:06.912Z,0.73
2023-11-26T04:22:34.767Z,0.73
2023-11-26T04:25:02.759Z,0.73
2023-11-26T04:27:29.684Z,0.93
2023-11-26T04:29:56.671Z,0.73
2023-11-26T04:32:23.654Z,0.70
2023-11-26T04:34:50.697Z,0.73
2023-11-26T04:37:19.130Z,0.65
2023-11-26T04:39:47.056Z,0.45
2023-11-26T04:42:14.042Z,0.85
2023-11-26T04:44:40.879Z,0.30
2023-11-26T04:47:09.107Z,0.65
2023-11-26T04:49:36.261Z,0.55
2023-11-26T04:52:03.640Z,0.70
2023-11-26T04:54:30.565Z,0.70
2023-11-26T04:56:57.524Z,0.93
2023-11-26T04:59:24.576Z,0.80
2023-11-26T05:01:55.988Z,0.50
2023-11-26T05:04:23.750Z,0.40
2023-11-26T05:06:50.661Z,0.52
2023-11-26T05:09:18.301Z,0.57
2023-11-26T05:11:47.238Z,0.50
2023-11-26T05:14:14.367Z,0.47
2023-11-26T05:16:42.909Z,0.30
2023-11-26T05:19:09.851Z,0.85
2023-11-26T05:21:36.741Z,0.53
2023-11-26T05:24:05.723Z,0.52
2023-11-26T05:26:34.086Z,0.68
2023-11-26T05:29:01.164Z,0.73
2023-11-26T05:31:28.197Z,0.75
2023-11-26T05:33:55.768Z,0.83
2023-11-26T05:36:24.369Z,0.50
2023-11-26T05:38:51.276Z,0.70
2023-11-26T05:41:21.544Z,0.73
2023-11-26T05:43:48.527Z,0.50
2023-11-26T05:46:15.660Z,0.33
2023-11-26T05:48:43.424Z,0.50
2023-11-26T05:51:10.803Z,0.63
2023-11-26T05:53:37.933Z,0.60
2023-11-26T05:56:08.497Z,0.70
2023-11-26T05:58:35.589Z,0.60
2023-11-26T06:01:02.569Z,0.98
2023-11-26T06:03:29.612Z,0.50
2023-11-26T06:05:56.665Z,0.40
2023-11-26T06:08:23.644Z,0.55
2023-11-26T06:10:50.634Z,0.80
2023-11-26T06:13:17.597Z,0.90
2023-11-26T06:15:44.600Z,0.55
2023-11-26T06:18:12.002Z,0.50
2023-11-26T06:20:38.910Z,0.52
2023-11-26T06:23:06.031Z,0.50
2023-11-26T06:25:32.924Z,0.50
2023-11-26T06:27:59.888Z,0.50
2023-11-26T06:30:26.899Z,0.50
2023-11-26T06:32:55.089Z,0.55
2023-11-26T06:35:23.046Z,0.40
2023-11-26T06:37:50.227Z,0.60
2023-11-26T06:40:17.526Z,0.40
2023-11-26T06:42:44.883Z,0.55
2023-11-26T06:45:12.560Z,0.40
2023-11-26T06:47:40.249Z,0.40
2023-11-26T06:50:08.348Z,0.40
2023-11-26T06:52:36.606Z,0.40
2023-11-26T06:55:03.933Z,0.60
2023-11-26T06:57:31.069Z,0.50
2023-11-26T06:59:58.071Z,0.70
2023-11-26T07:02:25.231Z,0.60
2023-11-26T07:04:52.503Z,0.45
2023-11-26T07:07:21.442Z,0.52
2023-11-26T07:09:49.194Z,0.55
2023-11-26T07:12:16.285Z,0.37
2023-11-26T07:14:45.724Z,0.30
2023-11-26T07:17:13.817Z,0.60
2023-11-26T07:19:44.026Z,0.47
2023-11-26T07:22:12.466Z,0.45
2023-11-26T07:24:42.668Z,0.30
2023-11-26T07:27:09.902Z,0.73
2023-11-26T07:29:36.873Z,0.40
2023-11-26T07:32:04.494Z,0.60
2023-11-26T07:34:32.354Z,0.40
2023-11-26T07:36:59.524Z,0.70
2023-11-26T07:39:27.806Z,0.60
2023-11-26T07:41:55.089Z,0.80
2023-11-26T07:44:22.199Z,1.00
2023-11-26T07:46:49.269Z,1.20
2023-11-26T07:49:16.318Z,0.57
2023-11-26T07:51:43.477Z,1.45
2023-11-26T07:54:19.073Z,0.60
2023-11-26T07:56:51.133Z,0.70
2023-11-26T07:59:18.261Z,0.82
2023-11-26T08:01:51.348Z,0.47
2023-11-26T08:04:19.068Z,0.63
2023-11-26T08:06:51.089Z,0.50
2023-11-26T08:09:19.018Z,0.55
2023-11-26T08:11:47.797Z,0.60
2023-11-26T08:14:15.770Z,0.40
2023-11-26T08:16:48.081Z,0.55
2023-11-26T08:19:19.508Z,0.50
2023-11-26T08:21:47.007Z,0.50
2023-11-26T08:24:20.049Z,0.77
2023-11-26T08:26:48.253Z,0.30
2023-11-26T08:29:17.905Z,0.60
2023-11-26T08:31:45.911Z,0.43
2023-11-26T08:34:16.524Z,0.40
2023-11-26T08:36:47.379Z,0.40
2023-11-26T08:39:28.121Z,0.43
2023-11-26T08:41:55.689Z,0.68
2023-11-26T08:44:22.786Z,0.73
2023-11-26T08:46:49.748Z,0.40
2023-11-26T08:49:22.127Z,0.55
2023-11-26T08:51:49.432Z,0.47
2023-11-26T08:54:16.569Z,0.50
2023-11-26T08:56:44.367Z,0.50
2023-11-26T08:59:11.271Z,0.30
2023-11-26T09:01:41.122Z,0.40
2023-11-26T09:04:08.581Z,0.40
2023-11-26T09:06:35.667Z,0.40
2023-11-26T09:09:02.738Z,0.40
2023-11-26T09:11:29.789Z,0.50
2023-11-26T09:13:59.350Z,0.40
2023-11-26T09:16:27.060Z,0.33
2023-11-26T09:18:54.074Z,0.40
2023-11-26T09:21:22.121Z,0.63
2023-11-26T09:23:49.239Z,0.50
2023-11-26T09:26:16.361Z,0.90
2023-11-26T09:28:45.530Z,0.30
2023-11-26T09:31:16.118Z,0.52
2023-11-26T09:33:43.131Z,0.60
2023-11-26T09:36:10.525Z,0.50
2023-11-26T09:38:40.509Z,0.45
2023-11-26T09:41:08.587Z,0.30
2023-11-26T09:43:35.623Z,0.63
2023-11-26T09:46:03.343Z,0.38
2023-11-26T09:48:30.518Z,0.45
2023-11-26T09:50:58.149Z,0.22
2023-11-26T09:53:25.902Z,0.60
2023-11-26T09:55:53.498Z,0.80
2023-11-26T09:58:20.414Z,0.60
2023-11-26T10:00:47.384Z,0.60
2023-11-26T10:03:15.057Z,0.60
2023-11-26T10:05:42.589Z,0.37
2023-11-26T10:08:30.209Z,0.45
2023-11-26T10:10:57.469Z,0.35
2023-11-26T10:13:37.869Z,0.45
2023-11-26T10:16:05.304Z,0.50
2023-11-26T10:18:42.844Z,0.50
2023-11-26T10:21:10.191Z,0.57
2023-11-26T10:23:41.281Z,1.08
2023-11-26T10:26:27.553Z,0.65
2023-11-26T10:29:13.772Z,0.55
2023-11-26T10:32:08.380Z,0.70
2023-11-26T10:34:37.152Z,0.50
2023-11-26T10:37:21.437Z,1.70
2023-11-26T10:39:55.004Z,0.70
2023-11-26T10:42:21.995Z,0.90
2023-11-26T10:44:55.056Z,0.70
2023-11-26T10:47:22.851Z,0.75
2023-11-26T10:49:55.826Z,0.60
2023-11-26T10:52:47.622Z,0.90
2023-11-26T10:55:19.409Z,0.70
2023-11-26T10:57:52.895Z,0.67
2023-11-26T11:00:21.092Z,0.98
2023-11-26T11:02:48.976Z,0.80
2023-11-26T11:05:18.403Z,0.73
2023-11-26T11:07:45.781Z,0.88
2023-11-26T11:10:40.480Z,0.90
2023-11-26T11:13:15.578Z,0.90
2023-11-26T11:15:43.639Z,0.93
2023-11-26T11:18:29.052Z,0.50
2023-11-26T11:21:12.055Z,0.80
2023-11-26T11:23:42.002Z,0.70
2023-11-26T11:26:10.777Z,0.82
2023-11-26T11:28:49.130Z,0.98
2023-11-26T11:31:21.310Z,1.02
2023-11-26T11:33:57.500Z,0.90
2023-11-26T11:36:45.909Z,0.80
2023-11-26T11:39:15.121Z,0.80
2023-11-26T11:42:04.351Z,0.80
2023-11-26T11:44:36.477Z,0.43
2023-11-26T11:47:08.213Z,0.47
2023-11-26T11:49:47.397Z,0.90
2023-11-26T11:52:16.177Z,0.70
2023-11-26T11:55:00.880Z,1.33
2023-11-26T11:57:29.763Z,0.77
2023-11-26T11:59:57.451Z,1.00
2023-11-26T12:02:27.739Z,0.70
2023-11-26T12:04:56.149Z,0.75
2023-11-26T12:07:32.456Z,0.77
2023-11-26T12:10:03.091Z,0.90
2023-11-26T12:12:30.518Z,0.80
2023-11-26T12:14:57.759Z,0.80
2023-11-26T12:17:24.933Z,0.70
2023-11-26T12:19:51.993Z,0.40
2023-11-26T12:22:19.212Z,0.70
2023-11-26T12:24:46.174Z,0.98
2023-11-26T12:27:24.340Z,0.90
2023-11-26T12:29:51.571Z,0.63
2023-11-26T12:32:27.445Z,0.77
2023-11-26T12:34:57.258Z,0.93
2023-11-26T12:37:24.548Z,0.90
2023-11-26T12:39:52.729Z,0.93
2023-11-26T12:42:19.889Z,0.68
2023-11-26T12:44:47.357Z,0.80
2023-11-26T12:47:14.274Z,0.88
2023-11-26T12:49:42.210Z,0.60
2023-11-26T12:52:10.074Z,0.70
2023-11-26T12:54:38.810Z,0.90
2023-11-26T12:57:06.604Z,0.80
2023-11-26T12:59:49.540Z,0.85
2023-11-26T13:02:17.346Z,0.73
2023-11-26T13:04:44.571Z,1.10
2023-11-26T13:07:11.632Z,0.73
2023-11-26T13:09:49.315Z,0.82
2023-11-26T13:12:16.819Z,0.90
2023-11-26T13:14:45.192Z,0.70
2023-11-26T13:17:12.365Z,0.80
2023-11-26T13:19:39.409Z,0.70
2023-11-26T13:22:06.498Z,0.85
2023-11-26T13:24:33.521Z,1.30
2023-11-26T13:27:00.473Z,0.73
2023-11-26T13:29:29.035Z,1.00
2023-11-26T13:31:56.027Z,0.70
2023-11-26T13:34:23.050Z,0.60
2023-11-26T13:36:51.504Z,0.70
2023-11-26T13:39:21.717Z,1.13
2023-11-26T13:41:48.957Z,0.80
2023-11-26T13:44:15.867Z,1.23
2023-11-26T13:46:43.718Z,0.90
2023-11-26T13:49:13.171Z,0.80
2023-11-26T13:51:40.308Z,0.68
2023-11-26T13:54:07.405Z,0.77
2023-11-26T13:56:34.375Z,0.60
2023-11-26T13:59:01.473Z,0.80
2023-11-26T14:01:28.853Z,0.63
2023-11-26T14:03:58.756Z,0.63
2023-11-26T14:06:28.200Z,0.67
2023-11-26T14:08:55.318Z,0.88
2023-11-26T14:11:22.620Z,0.60
2023-11-26T14:13:49.509Z,0.50
2023-11-26T14:16:16.681Z,0.57
2023-11-26T14:18:44.393Z,0.90
2023-11-26T14:21:13.695Z,0.52
2023-11-26T14:23:40.757Z,0.50
2023-11-26T14:26:08.035Z,0.45
2023-11-26T14:28:35.013Z,0.50
2023-11-26T14:31:02.555Z,0.50
2023-11-26T14:33:31.467Z,0.40
2023-11-26T14:35:58.462Z,0.85
2023-11-26T14:38:26.692Z,1.00
2023-11-26T14:40:54.269Z,1.27
2023-11-26T14:43:21.351Z,1.40
2023-11-26T14:45:48.735Z,1.40
2023-11-26T14:48:15.665Z,1.10
2023-11-26T14:50:45.188Z,0.60
2023-11-26T14:53:14.447Z,0.82
2023-11-26T14:55:42.940Z,0.40
2023-11-26T14:58:10.019Z,0.43
2023-11-26T15:00:37.156Z,0.40
2023-11-26T15:03:04.417Z,0.47
2023-11-26T15:05:31.474Z,0.70
2023-11-26T15:07:58.445Z,0.60
2023-11-26T15:10:25.446Z,0.70
2023-11-26T15:12:52.395Z,0.65
2023-11-26T15:15:19.573Z,0.45
2023-11-26T15:17:46.573Z,0.50
2023-11-26T15:20:14.538Z,0.57
2023-11-26T15:22:43.143Z,0.40
2023-11-26T15:25:13.332Z,0.38
2023-11-26T15:27:40.692Z,0.50
2023-11-26T15:30:10.290Z,0.57
2023-11-26T15:32:38.395Z,0.40
2023-11-26T15:35:05.881Z,1.00
2023-11-26T15:37:32.896Z,0.50
2023-11-26T15:39:59.967Z,5.05
2023-11-26T15:42:27.167Z,1.25
2023-11-26T15:44:53.936Z,0.80
2023-11-26T15:47:20.848Z,0.60
2023-11-26T15:49:47.746Z,1.10
2023-11-26T15:52:14.734Z,0.77
2023-11-26T15:54:42.693Z,0.60
2023-11-26T15:57:09.956Z,0.60
2023-11-26T15:59:36.927Z,0.50
2023-11-26T16:02:04.391Z,0.40
2023-11-26T16:04:31.574Z,0.55
2023-11-26T16:06:58.543Z,0.80
2023-11-26T16:09:26.654Z,0.50
2023-11-26T16:11:53.817Z,0.70
2023-11-26T16:14:20.927Z,0.88
2023-11-26T16:16:59.607Z,0.90
2023-11-26T16:19:34.749Z,0.82
2023-11-26T16:22:02.228Z,1.03
2023-11-26T16:24:35.649Z,0.63
2023-11-26T16:27:05.381Z,0.47
2023-11-26T16:29:32.530Z,0.57
2023-11-26T16:31:59.445Z,0.90
2023-11-26T16:34:26.546Z,0.73
2023-11-26T16:36:54.518Z,1.02
2023-11-26T16:39:21.940Z,1.00
2023-11-26T16:41:55.138Z,0.68
2023-11-26T16:44:24.142Z,0.73
2023-11-26T16:46:51.380Z,0.77
2023-11-26T16:49:18.602Z,0.90
2023-11-26T16:51:47.637Z,0.80
2023-11-26T16:54:14.791Z,1.25
2023-11-26T16:56:45.966Z,1.10
2023-11-26T16:59:13.203Z,1.10
2023-11-26T17:01:40.720Z,1.10
2023-11-26T17:04:08.064Z,1.10
2023-11-26T17:06:36.697Z,1.35
2023-11-26T17:09:04.216Z,1.40
2023-11-26T17:11:31.200Z,1.53
2023-11-26T17:13:58.266Z,1.70
2023-11-26T17:16:26.119Z,1.58
2023-11-26T17:18:53.218Z,1.48
2023-11-26T17:21:21.431Z,1.73
2023-11-26T17:23:51.698Z,1.87
2023-11-26T17:26:23.623Z,2.08
2023-11-26T17:28:50.746Z,1.70
2023-11-26T17:31:25.698Z,2.10
2023-11-26T17:33:53.864Z,2.20
2023-11-26T17:36:21.321Z,2.37
2023-11-26T17:38:48.469Z,2.40
2023-11-26T17:41:15.463Z,1.95
2023-11-26T17:43:42.449Z,2.40
2023-11-26T17:46:09.534Z,2.95
2023-11-26T17:48:36.660Z,2.40
2023-11-26T17:51:03.842Z,2.58
2023-11-26T17:53:30.906Z,2.20
2023-11-26T17:55:57.880Z,3.47
2023-11-26T17:58:25.059Z,2.92
2023-11-26T18:00:52.446Z,2.60
2023-11-26T18:03:19.829Z,2.40
2023-11-26T18:05:46.955Z,3.22
2023-11-26T18:08:14.106Z,2.20
2023-11-26T18:10:41.090Z,2.30
2023-11-26T18:13:08.068Z,2.10
2023-11-26T18:15:35.061Z,2.17
2023-11-26T18:18:02.087Z,2.10
2023-11-26T18:20:29.519Z,1.88
2023-11-26T18:22:56.493Z,1.80
2023-11-26T18:25:23.593Z,1.60
2023-11-26T18:27:50.628Z,1.85
2023-11-26T18:30:17.820Z,1.40
2023-11-26T18:32:44.795Z,1.70
2023-11-26T18:35:14.188Z,1.75
2023-11-26T18:37:41.465Z,1.47
2023-11-26T18:40:11.386Z,1.50
2023-11-26T18:42:38.658Z,1.75
2023-11-26T18:45:06.345Z,1.42
2023-11-26T18:47:33.557Z,1.40
2023-11-26T18:50:00.562Z,1.50
2023-11-26T18:52:27.645Z,1.52
2023-11-26T18:54:57.371Z,1.70
2023-11-26T18:57:26.921Z,1.90
2023-11-26T18:59:55.565Z,1.55
2023-11-26T19:02:22.727Z,1.07
2023-11-26T19:04:49.898Z,1.40
2023-11-26T19:07:16.885Z,1.00
2023-11-26T19:09:44.242Z,1.15
2023-11-26T19:12:11.302Z,1.95
2023-11-26T19:14:38.781Z,2.37
2023-11-26T19:17:05.886Z,2.15
2023-11-26T19:19:32.964Z,2.67
2023-11-26T19:22:00.370Z,2.72
2023-11-26T19:24:27.639Z,2.92
2023-11-26T19:26:54.574Z,2.63
2023-11-26T19:29:22.482Z,2.33
2023-11-26T19:31:49.738Z,3.50
2023-11-26T19:34:16.709Z,3.15
2023-11-26T19:36:43.839Z,3.58
2023-11-26T19:39:10.842Z,3.40
2023-11-26T19:41:41.194Z,4.05
2023-11-26T19:44:08.181Z,4.00
2023-11-26T19:46:40.867Z,4.07
2023-11-26T19:49:08.069Z,3.33
2023-11-26T19:51:36.629Z,3.63
2023-11-26T19:54:04.054Z,4.00
2023-11-26T19:56:31.138Z,3.40
2023-11-26T19:58:58.092Z,4.20
2023-11-26T20:01:26.102Z,4.15
2023-11-26T20:03:54.267Z,4.23
2023-11-26T20:06:21.767Z,3.78
2023-11-26T20:08:48.778Z,4.15
2023-11-26T20:11:15.815Z,3.85
2023-11-26T20:13:43.195Z,3.97
2023-11-26T20:16:14.465Z,3.30
2023-11-26T20:18:42.645Z,4.35
2023-11-26T20:21:09.991Z,4.38
2023-11-26T20:23:36.941Z,4.65
2023-11-26T20:26:04.015Z,4.68
2023-11-26T20:28:31.001Z,5.27
2023-11-26T20:31:08.150Z,3.88
2023-11-26T20:33:40.048Z,5.22
2023-11-26T20:36:27.721Z,5.05
2023-11-26T20:38:54.876Z,5.15
2023-11-26T20:41:21.918Z,5.63
2023-11-26T20:43:48.786Z,5.53
2023-11-26T20:46:23.457Z,5.60
2023-11-26T20:48:51.326Z,5.75
2023-11-26T20:51:22.447Z,5.70
2023-11-26T20:53:49.647Z,5.57
2023-11-26T20:56:24.200Z,5.40
2023-11-26T20:58:51.080Z,5.20
2023-11-26T21:01:18.335Z,5.60
2023-11-26T21:03:46.979Z,6.10
2023-11-26T21:06:14.907Z,6.43
2023-11-26T21:08:44.590Z,6.25
2023-11-26T21:11:13.658Z,6.43
2023-11-26T21:13:41.217Z,5.68
2023-11-26T21:16:08.701Z,6.15
2023-11-26T21:18:35.972Z,6.10
2023-11-26T21:21:03.518Z,5.95
2023-11-26T21:23:31.240Z,6.53
2023-11-26T21:25:59.232Z,5.53
2023-11-26T21:28:26.853Z,6.75
2023-11-26T21:30:54.036Z,6.37
2023-11-26T21:33:21.313Z,6.05
2023-11-26T21:35:48.471Z,6.40
2023-11-26T21:38:15.353Z,6.13
2023-11-26T21:40:52.944Z,6.53
2023-11-26T21:43:24.503Z,5.23
2023-11-26T21:45:52.455Z,5.45
2023-11-26T21:48:20.202Z,6.80
2023-11-26T21:50:47.690Z,6.05
2023-11-26T21:53:14.700Z,6.18
2023-11-26T21:55:41.709Z,5.80
2023-11-26T21:58:08.764Z,6.95
2023-11-26T22:00:35.863Z,6.25
2023-11-26T22:03:03.300Z,6.25
2023-11-26T22:05:30.224Z,6.68
2023-11-26T22:07:57.290Z,6.30
2023-11-26T22:10:24.331Z,6.15
2023-11-26T22:12:51.654Z,6.18
2023-11-26T22:15:19.010Z,5.88
2023-11-26T22:17:46.377Z,7.00
2023-11-26T22:20:13.593Z,6.47
2023-11-26T22:22:43.505Z,6.05
2023-11-26T22:25:11.441Z,6.35
2023-11-26T22:27:38.421Z,5.72
2023-11-26T22:30:08.609Z,5.80
2023-11-26T22:32:36.847Z,6.40
2023-11-26T22:35:03.918Z,6.60
2023-11-26T22:37:31.080Z,6.47
2023-11-26T22:39:58.014Z,6.00
2023-11-26T22:42:24.981Z,6.32
2023-11-26T22:44:51.981Z,6.40
2023-11-26T22:47:19.282Z,6.25
2023-11-26T22:49:48.784Z,6.40
2023-11-26T22:52:15.844Z,6.30
2023-11-26T22:54:42.823Z,6.15
2023-11-26T22:57:09.727Z,6.17
2023-11-26T22:59:36.834Z,5.63
2023-11-26T23:02:08.189Z,6.05
2023-11-26T23:04:36.100Z,6.72
2023-11-26T23:07:03.076Z,6.05
2023-11-26T23:09:29.939Z,5.47
2023-11-26T23:11:56.751Z,5.72
2023-11-26T23:14:23.737Z,6.38
2023-11-26T23:16:50.610Z,6.68
2023-11-26T23:19:17.574Z,7.28
2023-11-26T23:21:44.543Z,6.70
2023-11-26T23:24:11.670Z,7.05
2023-11-26T23:26:38.577Z,7.15
2023-11-26T23:29:06.446Z,6.97
2023-11-26T23:31:33.459Z,6.72
2023-11-26T23:34:00.582Z,6.70
2023-11-26T23:36:27.723Z,7.25
2023-11-26T23:38:56.184Z,8.27
2023-11-26T23:41:23.155Z,6.75
2023-11-26T23:43:50.014Z,8.05
2023-11-26T23:46:17.101Z,7.90
2023-11-26T23:48:44.459Z,7.38
2023-11-26T23:51:11.516Z,7.97
2023-11-26T23:53:38.547Z,7.57
2023-11-26T23:56:06.338Z,7.65
2023-11-26T23:58:34.040Z,7.60
